Time;durP1;ratioP1;P1;durP2;ratioP2;P2;SDS_P1;SDS_P2;PMS_P1;PMS_P2;Temp;Humidity;BMP_temperature;BMP_pressure;BME280_temperature;BME280_humidity;BME280_pressure;Samples;Min_cycle;Max_cycle;Signal;HPM_P1;HPM_P2
2023/10/10 00:00:48;;;;;;;55.15;36.90;;;;;;;;;;5062649;28;20439;-64
2023/10/10 00:03:17;;;;;;;50.95;36.90;;;;;;;;;;5064202;28;20415;-64
2023/10/10 00:05:44;;;;;;;58.35;37.65;;;;;;;;;;5061847;28;20417;-64
2023/10/10 00:08:14;;;;;;;59.45;38.20;;;;;;;;;;5061651;28;20437;-64
2023/10/10 00:10:50;;;;;;;61.78;40.08;;;;;;;;;;5063957;28;20778;-65
2023/10/10 00:13:17;;;;;;;59.22;39.28;;;;;;;;;;5063279;28;20895;-64
2023/10/10 00:16:05;;;;;;;59.25;39.33;;;;;;;;;;5060899;28;20496;-65
2023/10/10 00:18:32;;;;;;;59.33;38.67;;;;;;;;;;5060844;28;20508;-64
2023/10/10 00:21:06;;;;;;;54.95;38.55;;;;;;;;;;5062324;28;20886;-64
2023/10/10 00:23:39;;;;;;;53.70;38.10;;;;;;;;;;5062171;28;20413;-65
2023/10/10 00:26:07;;;;;;;54.92;38.13;;;;;;;;;;5061886;28;20481;-64
2023/10/10 00:28:35;;;;;;;60.55;38.70;;;;;;;;;;5063197;28;20451;-64
2023/10/10 00:31:06;;;;;;;55.42;38.08;;;;;;;;;;5060981;28;20471;-65
2023/10/10 00:33:38;;;;;;;53.95;36.88;;;;;;;;;;5060782;28;20417;-64
2023/10/10 00:36:05;;;;;;;57.25;39.17;;;;;;;;;;5060049;28;20403;-65
2023/10/10 00:38:32;;;;;;;58.80;38.70;;;;;;;;;;5062131;28;20429;-63
2023/10/10 00:41:05;;;;;;;61.58;40.38;;;;;;;;;;5060736;28;20410;-64
2023/10/10 00:43:33;;;;;;;66.33;39.50;;;;;;;;;;5056855;28;20521;-65
2023/10/10 00:46:04;;;;;;;58.92;40.22;;;;;;;;;;5062442;28;20407;-64
2023/10/10 00:48:34;;;;;;;63.03;40.15;;;;;;;;;;5056847;28;20402;-65
2023/10/10 00:51:06;;;;;;;63.30;41.28;;;;;;;;;;5061338;28;20444;-66
2023/10/10 00:53:35;;;;;;;59.22;40.08;;;;;;;;;;5056305;28;20489;-65
2023/10/10 00:56:05;;;;;;;62.97;42.10;;;;;;;;;;5061234;28;20477;-64
2023/10/10 00:58:37;;;;;;;59.50;40.67;;;;;;;;;;5062858;28;20427;-65
2023/10/10 01:01:09;;;;;;;60.80;41.75;;;;;;;;;;5060957;28;20413;-65
2023/10/10 01:03:36;;;;;;;55.92;40.75;;;;;;;;;;5060082;28;20409;-65
2023/10/10 01:06:07;;;;;;;64.32;41.42;;;;;;;;;;5062368;28;20452;-65
2023/10/10 01:08:59;;;;;;;61.13;42.30;;;;;;;;;;5062142;28;20403;-65
2023/10/10 01:11:29;;;;;;;60.10;42.35;;;;;;;;;;5058566;28;20459;-65
2023/10/10 01:13:56;;;;;;;65.68;42.38;;;;;;;;;;5060558;28;20419;-65
2023/10/10 01:16:24;;;;;;;61.28;42.00;;;;;;;;;;5060598;28;20903;-65
2023/10/10 01:18:57;;;;;;;64.47;43.20;;;;;;;;;;5062475;28;20511;-66
2023/10/10 01:21:30;;;;;;;61.37;42.03;;;;;;;;;;5061162;28;20409;-65
2023/10/10 01:24:01;;;;;;;63.30;43.08;;;;;;;;;;5061812;28;20415;-64
2023/10/10 01:26:36;;;;;;;63.23;42.90;;;;;;;;;;5061468;28;20409;-65
2023/10/10 01:29:14;;;;;;;60.58;41.90;;;;;;;;;;5055935;28;20405;-64
2023/10/10 01:31:42;;;;;;;54.22;39.10;;;;;;;;;;5059574;28;20409;-64
2023/10/10 01:34:09;;;;;;;61.97;41.73;;;;;;;;;;5055441;28;20833;-66
2023/10/10 01:36:38;;;;;;;61.13;41.67;;;;;;;;;;5061056;28;20435;-65
2023/10/10 01:39:21;;;;;;;61.85;41.17;;;;;;;;;;5061279;28;20423;-65
2023/10/10 01:41:53;;;;;;;58.67;40.20;;;;;;;;;;5061981;28;20491;-64
2023/10/10 01:44:22;;;;;;;58.92;39.95;;;;;;;;;;5061515;28;20461;-65
2023/10/10 01:46:51;;;;;;;60.03;40.58;;;;;;;;;;5061122;28;20416;-64
2023/10/10 01:49:20;;;;;;;61.03;39.80;;;;;;;;;;5059128;28;20410;-64
2023/10/10 01:51:54;;;;;;;63.60;39.90;;;;;;;;;;5060891;28;20422;-64
2023/10/10 01:54:21;;;;;;;67.70;41.67;;;;;;;;;;5061694;28;20421;-65
2023/10/10 01:56:51;;;;;;;61.15;40.25;;;;;;;;;;5061083;28;20477;-64
2023/10/10 01:59:24;;;;;;;57.30;39.95;;;;;;;;;;5061252;28;20423;-66
2023/10/10 02:01:52;;;;;;;59.03;39.50;;;;;;;;;;5056346;28;20871;-64
2023/10/10 02:04:22;;;;;;;60.95;39.08;;;;;;;;;;5060019;28;20458;-64
2023/10/10 02:06:57;;;;;;;56.53;39.13;;;;;;;;;;5055919;28;20544;-64
2023/10/10 02:09:33;;;;;;;65.15;40.78;;;;;;;;;;5059535;28;20767;-64
2023/10/10 02:12:08;;;;;;;60.33;41.25;;;;;;;;;;5057108;28;20488;-64
2023/10/10 02:14:36;;;;;;;59.15;40.95;;;;;;;;;;5058916;28;20410;-64
2023/10/10 02:17:19;;;;;;;59.85;39.22;;;;;;;;;;5061093;28;20416;-65
2023/10/10 02:19:54;;;;;;;55.83;38.38;;;;;;;;;;5055188;28;20940;-65
2023/10/10 02:22:33;;;;;;;59.30;37.63;;;;;;;;;;5058858;28;20476;-65
2023/10/10 02:25:36;;;;;;;60.22;38.45;;;;;;;;;;5062603;28;20465;-64
2023/10/10 02:28:02;;;;;;;58.33;39.30;;;;;;;;;;5058763;28;20696;-66
2023/10/10 02:30:35;;;;;;;60.83;39.03;;;;;;;;;;5061409;28;20765;-65
2023/10/10 02:33:12;;;;;;;57.15;39.33;;;;;;;;;;5061124;28;20418;-65
2023/10/10 02:35:54;;;;;;;59.97;40.45;;;;;;;;;;5060413;28;20447;-66
2023/10/10 02:38:25;;;;;;;62.85;43.13;;;;;;;;;;5057418;28;20436;-66
2023/10/10 02:40:56;;;;;;;65.40;43.55;;;;;;;;;;5058444;28;20874;-63
2023/10/10 02:43:45;;;;;;;71.90;45.85;;;;;;;;;;5060351;28;20451;-64
2023/10/10 02:46:17;;;;;;;71.50;45.25;;;;;;;;;;5059923;28;20409;-63
2023/10/10 02:48:44;;;;;;;69.93;43.50;;;;;;;;;;5058528;28;20569;-64
2023/10/10 02:51:15;;;;;;;62.28;41.53;;;;;;;;;;5063695;28;20406;-64
2023/10/10 02:53:46;;;;;;;62.05;42.53;;;;;;;;;;5064777;28;20931;-64
2023/10/10 02:56:18;;;;;;;70.83;45.23;;;;;;;;;;5058865;28;20400;-65
2023/10/10 02:58:45;;;;;;;77.78;48.28;;;;;;;;;;5064640;28;21142;-64
2023/10/10 03:01:49;;;;;;;79.97;48.22;;;;;;;;;;5061219;28;20418;-64
2023/10/10 03:04:08;;;;;;;84.50;50.28;;;;;;;;;;5060402;28;20408;-63
2023/10/10 03:06:34;;;;;;;78.68;49.17;;;;;;;;;;5062909;28;20463;-64
2023/10/10 03:09:13;;;;;;;89.10;51.95;;;;;;;;;;5065072;28;20410;-64
2023/10/10 03:11:53;;;;;;;84.47;50.63;;;;;;;;;;5064703;28;20498;-64
2023/10/10 03:14:26;;;;;;;87.97;50.65;;;;;;;;;;5061521;28;20451;-64
2023/10/10 03:17:03;;;;;;;86.53;52.30;;;;;;;;;;5061829;28;21141;-63
2023/10/10 03:19:38;;;;;;;93.90;52.90;;;;;;;;;;5062441;28;20425;-64
2023/10/10 03:22:28;;;;;;;95.80;56.13;;;;;;;;;;5060087;28;20880;-64
2023/10/10 03:25:08;;;;;;;113.22;59.60;;;;;;;;;;5057283;28;20814;-66
2023/10/10 03:27:53;;;;;;;119.43;62.22;;;;;;;;;;5062564;28;20413;-64
2023/10/10 03:30:30;;;;;;;114.50;61.08;;;;;;;;;;5064078;28;20446;-67
2023/10/10 03:33:08;;;;;;;121.60;60.80;;;;;;;;;;5064318;28;20422;-64
2023/10/10 03:35:52;;;;;;;120.75;62.08;;;;;;;;;;5054495;28;20886;-64
2023/10/10 05:23:29;;;;;;;140.05;64.47;;;;;;;;;;5094183;27;20354;-65
2023/10/10 05:23:34;;;;;;;187.02;70.32;;;;;;;;;;5090021;28;20385;-66
2023/10/10 05:26:02;;;;;;;180.57;69.43;;;;;;;;;;5081178;28;20403;-66
2023/10/10 05:28:32;;;;;;;193.15;71.95;;;;;;;;;;5092532;28;20848;-66
2023/10/10 05:30:59;;;;;;;177.07;71.10;;;;;;;;;;5091759;28;20412;-66
2023/10/10 05:33:27;;;;;;;173.93;70.65;;;;;;;;;;5092097;28;20410;-65
2023/10/10 05:35:59;;;;;;;175.70;70.00;;;;;;;;;;5091884;28;20489;-66
2023/10/10 05:38:26;;;;;;;177.45;72.28;;;;;;;;;;5091969;28;20821;-65
2023/10/10 05:40:54;;;;;;;178.03;73.60;;;;;;;;;;5093982;28;20523;-66
2023/10/10 05:43:26;;;;;;;179.07;73.20;;;;;;;;;;5095390;28;20448;-66
2023/10/10 05:45:54;;;;;;;172.48;75.53;;;;;;;;;;5091002;28;20439;-67
2023/10/10 05:48:21;;;;;;;181.20;75.57;;;;;;;;;;5091774;28;20453;-65
2023/10/10 05:50:48;;;;;;;162.27;71.80;;;;;;;;;;5092105;28;20539;-66
2023/10/10 05:53:18;;;;;;;160.52;70.57;;;;;;;;;;5091782;28;20489;-66
2023/10/10 05:55:50;;;;;;;152.88;70.82;;;;;;;;;;5080270;28;21196;-65
2023/10/10 05:58:18;;;;;;;160.77;71.28;;;;;;;;;;5088549;28;20406;-66
2023/10/10 06:00:48;;;;;;;162.20;73.90;;;;;;;;;;5091413;28;20422;-66
2023/10/10 06:03:16;;;;;;;158.38;73.05;;;;;;;;;;5090681;28;20467;-65
2023/10/10 06:05:45;;;;;;;164.48;76.25;;;;;;;;;;5091320;28;20444;-65
2023/10/10 06:08:12;;;;;;;161.15;75.40;;;;;;;;;;5091503;28;20959;-66
2023/10/10 06:10:41;;;;;;;157.40;75.05;;;;;;;;;;5091574;28;20486;-67
2023/10/10 06:13:10;;;;;;;148.55;72.47;;;;;;;;;;5091301;28;20470;-67
2023/10/10 06:15:38;;;;;;;143.20;71.72;;;;;;;;;;5091062;28;20417;-66
2023/10/10 06:18:11;;;;;;;139.55;68.32;;;;;;;;;;5091429;28;20881;-67
2023/10/10 06:20:40;;;;;;;148.55;72.50;;;;;;;;;;5091313;28;20471;-66
2023/10/10 06:23:08;;;;;;;142.35;70.82;;;;;;;;;;5081949;28;20418;-66
2023/10/10 06:25:35;;;;;;;147.10;73.63;;;;;;;;;;5090529;28;21228;-65
2023/10/10 06:28:06;;;;;;;140.25;72.88;;;;;;;;;;5088218;28;20543;-65
2023/10/10 06:30:36;;;;;;;134.18;69.65;;;;;;;;;;5089940;28;20401;-65
2023/10/10 06:33:09;;;;;;;133.55;67.85;;;;;;;;;;5090844;28;20414;-65
2023/10/10 06:35:37;;;;;;;125.85;68.60;;;;;;;;;;5090214;28;20410;-66
2023/10/10 06:38:10;;;;;;;122.28;66.93;;;;;;;;;;5090715;28;20448;-66
2023/10/10 06:40:42;;;;;;;122.30;68.23;;;;;;;;;;5090343;28;20494;-66
2023/10/10 06:43:10;;;;;;;127.43;67.75;;;;;;;;;;5091148;28;20414;-65
2023/10/10 06:45:40;;;;;;;123.35;67.70;;;;;;;;;;5090952;28;20405;-65
2023/10/10 06:48:09;;;;;;;121.77;66.30;;;;;;;;;;5090659;28;20566;-65
2023/10/10 06:50:38;;;;;;;113.28;65.80;;;;;;;;;;5090757;28;20488;-65
2023/10/10 06:53:05;;;;;;;105.18;62.65;;;;;;;;;;5086854;28;20414;-65
2023/10/10 06:55:37;;;;;;;109.85;63.60;;;;;;;;;;5082775;28;20406;-66
2023/10/10 06:58:06;;;;;;;106.00;62.93;;;;;;;;;;5086882;28;20475;-66
2023/10/10 07:00:44;;;;;;;101.07;58.67;;;;;;;;;;5081200;28;20421;-64
2023/10/10 07:03:18;;;;;;;94.03;56.60;;;;;;;;;;5079479;28;20406;-66
2023/10/10 07:05:45;;;;;;;89.90;54.40;;;;;;;;;;5091046;28;20503;-67
2023/10/10 07:08:19;;;;;;;83.53;52.35;;;;;;;;;;5086288;28;20433;-67
2023/10/10 07:10:47;;;;;;;82.22;51.17;;;;;;;;;;5088497;28;20438;-66
2023/10/10 07:13:14;;;;;;;73.15;47.15;;;;;;;;;;5095427;28;20414;-66
2023/10/10 07:15:50;;;;;;;70.07;44.72;;;;;;;;;;5089776;28;20416;-65
2023/10/10 07:18:22;;;;;;;65.90;42.40;;;;;;;;;;5087218;28;20417;-65
2023/10/10 07:21:04;;;;;;;65.07;41.08;;;;;;;;;;5086056;28;20422;-65
2023/10/10 07:23:37;;;;;;;60.65;39.25;;;;;;;;;;5085343;28;20401;-65
2023/10/10 07:26:05;;;;;;;59.30;38.65;;;;;;;;;;5083747;28;20410;-64
2023/10/10 07:28:47;;;;;;;56.97;37.30;;;;;;;;;;5085226;28;20494;-65
2023/10/10 07:31:17;;;;;;;52.17;34.10;;;;;;;;;;5089462;28;20500;-65
2023/10/10 07:33:45;;;;;;;54.03;35.10;;;;;;;;;;5089704;28;21003;-65
2023/10/10 07:36:13;;;;;;;49.08;32.75;;;;;;;;;;5089151;28;20463;-64
2023/10/10 07:38:40;;;;;;;48.22;32.13;;;;;;;;;;5089562;28;20413;-62
2023/10/10 07:41:09;;;;;;;48.78;31.08;;;;;;;;;;5085816;28;20447;-63
2023/10/10 07:43:37;;;;;;;44.45;30.75;;;;;;;;;;5089065;28;20418;-64
2023/10/10 07:46:17;;;;;;;43.45;28.85;;;;;;;;;;5085010;28;20906;-65
2023/10/10 07:48:46;;;;;;;41.00;28.30;;;;;;;;;;5089281;28;20414;-63
2023/10/10 07:51:18;;;;;;;38.77;26.67;;;;;;;;;;5088962;28;21081;-63
2023/10/10 07:53:58;;;;;;;35.88;26.38;;;;;;;;;;5085613;28;20415;-63
2023/10/10 07:56:25;;;;;;;41.17;26.27;;;;;;;;;;5079202;28;20574;-63
2023/10/10 07:58:56;;;;;;;38.35;24.17;;;;;;;;;;5089520;28;20949;-62
2023/10/10 08:01:23;;;;;;;35.38;23.35;;;;;;;;;;5089212;28;20430;-64
2023/10/10 08:03:52;;;;;;;34.38;22.90;;;;;;;;;;5088994;28;20949;-62
2023/10/10 08:06:21;;;;;;;30.95;22.27;;;;;;;;;;5088742;28;20414;-63
2023/10/10 08:08:56;;;;;;;32.97;21.42;;;;;;;;;;5088975;28;20455;-63
2023/10/10 08:11:27;;;;;;;34.35;21.92;;;;;;;;;;5088752;28;20892;-63
2023/10/10 08:13:55;;;;;;;29.60;20.45;;;;;;;;;;5089202;28;20437;-63
2023/10/10 08:16:29;;;;;;;29.35;18.77;;;;;;;;;;5087988;28;20410;-63
2023/10/10 08:19:04;;;;;;;29.98;19.17;;;;;;;;;;5086455;28;20456;-62
2023/10/10 08:21:36;;;;;;;28.08;18.60;;;;;;;;;;5088606;28;20511;-65
2023/10/10 08:24:03;;;;;;;28.70;19.02;;;;;;;;;;5085834;28;20429;-65
2023/10/10 08:26:38;;;;;;;26.95;17.50;;;;;;;;;;5080658;28;20410;-63
2023/10/10 08:29:07;;;;;;;28.08;17.23;;;;;;;;;;5090460;28;20410;-62
2023/10/10 08:31:36;;;;;;;26.67;17.08;;;;;;;;;;5092363;28;20489;-61
2023/10/10 08:34:05;;;;;;;25.52;16.67;;;;;;;;;;5089083;28;20421;-63
2023/10/10 08:36:32;;;;;;;27.25;15.63;;;;;;;;;;5092303;28;20412;-62
2023/10/10 08:39:12;;;;;;;24.92;14.55;;;;;;;;;;5092100;28;20438;-63
2023/10/10 08:41:41;;;;;;;22.33;14.30;;;;;;;;;;5092475;28;20429;-65
2023/10/10 08:44:09;;;;;;;21.83;13.52;;;;;;;;;;5092747;28;20410;-66
2023/10/10 08:46:45;;;;;;;22.15;13.45;;;;;;;;;;5092118;28;20405;-67
2023/10/10 08:49:15;;;;;;;19.65;12.20;;;;;;;;;;5087996;28;20600;-69
2023/10/10 08:51:43;;;;;;;19.00;12.32;;;;;;;;;;5092207;28;20784;-67
2023/10/10 08:54:11;;;;;;;21.08;12.63;;;;;;;;;;5088754;28;20424;-65
2023/10/10 08:56:39;;;;;;;18.37;11.40;;;;;;;;;;5083228;28;20455;-67
2023/10/10 08:59:07;;;;;;;21.17;11.90;;;;;;;;;;5092171;28;20409;-66
2023/10/10 09:01:35;;;;;;;20.23;11.70;;;;;;;;;;5091802;28;20422;-66
2023/10/10 09:04:04;;;;;;;19.17;11.55;;;;;;;;;;5092472;28;20410;-67
2023/10/10 09:06:43;;;;;;;18.60;11.68;;;;;;;;;;5091704;28;20405;-66
2023/10/10 09:09:33;;;;;;;20.35;11.70;;;;;;;;;;5089128;28;20867;-66
2023/10/10 09:12:02;;;;;;;19.27;12.00;;;;;;;;;;5086112;28;20475;-66
2023/10/10 09:14:40;;;;;;;16.85;11.75;;;;;;;;;;5083378;28;20493;-68
2023/10/10 09:17:08;;;;;;;16.45;11.00;;;;;;;;;;5091464;28;20888;-67
2023/10/10 09:19:37;;;;;;;18.75;11.63;;;;;;;;;;5091309;28;20922;-65
2023/10/10 09:22:12;;;;;;;17.70;11.55;;;;;;;;;;5091440;28;20429;-66
2023/10/10 09:24:41;;;;;;;17.88;11.13;;;;;;;;;;5087526;28;20420;-67
2023/10/10 09:27:21;;;;;;;16.35;11.15;;;;;;;;;;5088673;28;20509;-70
2023/10/10 09:29:54;;;;;;;19.38;11.02;;;;;;;;;;5089821;28;20417;-69
2023/10/10 09:32:27;;;;;;;18.13;11.02;;;;;;;;;;5085836;28;20497;-67
2023/10/10 09:34:57;;;;;;;16.95;10.50;;;;;;;;;;5085999;28;20490;-68
2023/10/10 09:37:30;;;;;;;17.55;11.07;;;;;;;;;;5085360;28;20508;-66
2023/10/10 09:39:59;;;;;;;17.10;10.10;;;;;;;;;;5087235;28;20412;-66
2023/10/10 09:42:44;;;;;;;17.63;10.77;;;;;;;;;;5090985;28;20924;-67
2023/10/10 09:45:35;;;;;;;16.13;9.88;;;;;;;;;;5088852;28;20505;-67
2023/10/10 09:48:05;;;;;;;14.88;9.48;;;;;;;;;;5089566;28;20406;-69
2023/10/10 09:50:37;;;;;;;17.23;9.77;;;;;;;;;;5088803;28;20410;-67
2023/10/10 09:53:19;;;;;;;19.85;12.98;;;;;;;;;;5090847;28;20406;-65
2023/10/10 09:55:46;;;;;;;14.07;9.10;;;;;;;;;;5090391;28;20409;-65
2023/10/10 09:58:24;;;;;;;15.63;8.80;;;;;;;;;;5090765;28;20402;-65
2023/10/10 10:00:52;;;;;;;13.20;7.90;;;;;;;;;;5087753;28;20510;-65
2023/10/10 10:06:34;;;;;;;11.05;6.80;;;;;;;;;;5085603;28;20421;-65
2023/10/10 10:09:16;;;;;;;10.05;6.30;;;;;;;;;;5090018;28;20463;-65
2023/10/10 10:11:49;;;;;;;12.02;6.70;;;;;;;;;;5089355;28;20955;-65
2023/10/10 10:14:19;;;;;;;11.70;6.68;;;;;;;;;;5090700;28;20406;-65
2023/10/10 10:16:48;;;;;;;11.93;6.50;;;;;;;;;;5087592;28;20421;-65
2023/10/10 10:19:17;;;;;;;11.13;5.72;;;;;;;;;;5087628;28;20915;-69
2023/10/10 10:22:07;;;;;;;12.85;5.65;;;;;;;;;;5089661;28;20422;-71
2023/10/10 10:24:50;;;;;;;9.68;6.20;;;;;;;;;;5085801;28;20432;-74
2023/10/10 10:27:24;;;;;;;10.80;5.85;;;;;;;;;;5090927;28;20495;-67
2023/10/10 10:29:54;;;;;;;12.38;5.78;;;;;;;;;;5093585;28;20432;-69
2023/10/10 10:32:24;;;;;;;10.52;5.82;;;;;;;;;;5090887;28;20442;-72
2023/10/10 10:34:56;;;;;;;7.68;5.63;;;;;;;;;;5090314;28;20402;-69
2023/10/10 10:37:23;;;;;;;8.27;5.10;;;;;;;;;;5089878;28;20409;-69
2023/10/10 10:42:47;;;;;;;10.23;5.15;;;;;;;;;;5089416;28;21025;-68
2023/10/10 10:45:35;;;;;;;10.75;5.53;;;;;;;;;;5089745;28;20410;-67
2023/10/10 10:48:06;;;;;;;9.77;5.40;;;;;;;;;;5089036;28;20428;-68
2023/10/10 10:50:45;;;;;;;10.23;5.40;;;;;;;;;;5088850;28;20493;-67
2023/10/10 10:53:31;;;;;;;9.98;5.40;;;;;;;;;;5085790;28;20903;-65
2023/10/10 10:59:12;;;;;;;11.27;5.75;;;;;;;;;;5086378;28;20485;-65
2023/10/10 11:01:52;;;;;;;9.90;4.88;;;;;;;;;;5087048;28;20916;-67
2023/10/10 11:04:42;;;;;;;9.25;4.88;;;;;;;;;;5086632;28;20410;-66
2023/10/10 11:07:16;;;;;;;10.63;5.50;;;;;;;;;;5086712;28;20482;-68
2023/10/10 11:09:52;;;;;;;10.50;4.95;;;;;;;;;;5089887;28;20414;-68
2023/10/10 11:12:22;;;;;;;11.02;5.07;;;;;;;;;;5090229;28;20503;-70
2023/10/10 11:14:50;;;;;;;7.82;5.05;;;;;;;;;;5089991;28;20402;-69
2023/10/10 11:17:21;;;;;;;9.45;4.88;;;;;;;;;;5089350;28;20410;-69
2023/10/10 11:19:53;;;;;;;8.27;4.67;;;;;;;;;;5089002;28;20761;-68
2023/10/10 11:25:04;;;;;;;7.80;4.70;;;;;;;;;;5077556;28;20404;-69
2023/10/10 11:27:33;;;;;;;9.77;4.93;;;;;;;;;;5089556;28;20410;-69
2023/10/10 11:30:08;;;;;;;7.63;4.50;;;;;;;;;;5088996;28;20496;-68
2023/10/10 11:32:45;;;;;;;8.05;4.80;;;;;;;;;;5089673;28;20417;-69
2023/10/10 11:35:22;;;;;;;8.68;4.90;;;;;;;;;;5086301;28;20825;-69
2023/10/10 11:37:59;;;;;;;10.83;4.60;;;;;;;;;;5089426;28;20412;-69
2023/10/10 11:40:32;;;;;;;9.50;4.32;;;;;;;;;;5088498;28;20414;-67
2023/10/10 11:43:03;;;;;;;7.80;4.47;;;;;;;;;;5085714;28;20501;-69
2023/10/10 11:45:40;;;;;;;12.13;4.50;;;;;;;;;;5088909;28;20475;-71
2023/10/10 11:48:12;;;;;;;9.77;5.00;;;;;;;;;;5086699;28;20420;-71
2023/10/10 11:51:05;;;;;;;8.95;4.60;;;;;;;;;;5089040;28;20414;-71
2023/10/10 11:53:36;;;;;;;9.83;4.93;;;;;;;;;;5088509;28;20776;-71
2023/10/10 11:56:04;;;;;;;9.27;5.00;;;;;;;;;;5083091;28;20414;-71
2023/10/10 11:58:36;;;;;;;8.05;4.70;;;;;;;;;;5088825;28;20916;-73
2023/10/10 12:01:05;;;;;;;9.32;4.72;;;;;;;;;;5086281;28;20433;-69
2023/10/10 12:03:41;;;;;;;8.00;4.22;;;;;;;;;;5090442;28;20417;-69
2023/10/10 12:06:14;;;;;;;9.88;4.60;;;;;;;;;;5091161;28;20814;-69
2023/10/10 12:08:44;;;;;;;8.98;4.30;;;;;;;;;;5090475;28;20429;-69
2023/10/10 12:11:12;;;;;;;7.78;4.70;;;;;;;;;;5093204;28;20406;-69
2023/10/10 12:13:41;;;;;;;10.13;4.53;;;;;;;;;;5094047;28;20418;-69
2023/10/10 12:16:10;;;;;;;6.80;4.40;;;;;;;;;;5092522;28;20425;-70
2023/10/10 12:18:43;;;;;;;11.80;4.70;;;;;;;;;;5094070;28;20497;-69
2023/10/10 12:21:13;;;;;;;10.80;4.63;;;;;;;;;;5092614;28;20424;-69
2023/10/10 12:23:40;;;;;;;9.80;4.32;;;;;;;;;;5092659;28;20765;-70
2023/10/10 12:29:03;;;;;;;10.23;4.53;;;;;;;;;;5085038;28;20496;-73
2023/10/10 12:31:34;;;;;;;8.70;4.82;;;;;;;;;;5112699;28;20414;-72
2023/10/10 12:34:01;;;;;;;8.95;4.78;;;;;;;;;;5111576;28;20414;-71
2023/10/10 12:36:32;;;;;;;9.33;5.00;;;;;;;;;;5092640;28;20414;-74
2023/10/10 12:38:59;;;;;;;9.73;5.25;;;;;;;;;;5092193;28;20736;-70
2023/10/10 12:41:35;;;;;;;8.48;4.50;;;;;;;;;;5092866;28;20448;-73
2023/10/10 12:44:08;;;;;;;9.18;5.03;;;;;;;;;;5092457;28;20804;-72
2023/10/10 12:46:41;;;;;;;12.50;4.70;;;;;;;;;;5088421;28;20438;-72
2023/10/10 12:49:11;;;;;;;9.90;4.85;;;;;;;;;;5092364;28;20874;-73
2023/10/10 12:51:47;;;;;;;12.60;4.70;;;;;;;;;;5092504;28;20410;-73
2023/10/10 12:54:17;;;;;;;10.80;4.80;;;;;;;;;;5089542;28;20735;-68
2023/10/10 12:56:54;;;;;;;10.35;5.10;;;;;;;;;;5087010;28;20755;-66
2023/10/10 12:59:26;;;;;;;11.02;4.88;;;;;;;;;;5092248;28;20405;-68
2023/10/10 13:01:56;;;;;;;12.98;4.80;;;;;;;;;;5089423;28;20421;-69
2023/10/10 13:04:28;;;;;;;9.47;4.90;;;;;;;;;;5095978;28;20922;-66
2023/10/10 13:07:02;;;;;;;12.57;4.87;;;;;;;;;;5089564;28;20559;-71
2023/10/10 13:09:43;;;;;;;10.05;4.80;;;;;;;;;;5091681;28;20402;-70
2023/10/10 13:12:18;;;;;;;8.50;4.60;;;;;;;;;;5088876;28;20442;-71
2023/10/10 13:14:50;;;;;;;9.87;4.60;;;;;;;;;;5089045;28;20464;-71
2023/10/10 13:17:31;;;;;;;12.65;4.75;;;;;;;;;;5091648;28;20467;-67
2023/10/10 13:19:59;;;;;;;16.23;5.70;;;;;;;;;;5089745;28;20437;-66
2023/10/10 13:22:29;;;;;;;11.18;5.00;;;;;;;;;;5091625;28;20508;-67
2023/10/10 13:24:56;;;;;;;13.02;5.28;;;;;;;;;;5081921;28;20501;-68
2023/10/10 13:27:25;;;;;;;13.10;4.93;;;;;;;;;;5089471;28;20438;-68
2023/10/10 13:29:52;;;;;;;10.07;4.80;;;;;;;;;;5091358;28;20494;-67
2023/10/10 13:32:21;;;;;;;11.27;5.10;;;;;;;;;;5091901;28;20447;-67
2023/10/10 13:34:48;;;;;;;11.57;4.53;;;;;;;;;;5091850;28;20402;-69
2023/10/10 13:37:15;;;;;;;9.80;4.72;;;;;;;;;;5091251;28;20463;-67
2023/10/10 13:39:43;;;;;;;12.77;4.97;;;;;;;;;;5088704;28;20463;-67
2023/10/10 13:42:14;;;;;;;10.35;4.80;;;;;;;;;;5089022;28;20612;-67
2023/10/10 13:44:41;;;;;;;11.50;5.15;;;;;;;;;;5089862;28;20771;-67
2023/10/10 13:47:08;;;;;;;12.05;5.35;;;;;;;;;;5091106;28;20485;-68
2023/10/10 13:49:44;;;;;;;14.57;5.03;;;;;;;;;;5094062;28;20413;-68
2023/10/10 13:52:11;;;;;;;12.93;5.10;;;;;;;;;;5096245;28;20405;-68
2023/10/10 13:54:38;;;;;;;11.40;4.97;;;;;;;;;;5084802;28;20410;-68
2023/10/10 13:57:06;;;;;;;12.60;4.82;;;;;;;;;;5087439;28;20410;-68
2023/10/10 13:59:33;;;;;;;11.73;4.90;;;;;;;;;;5091084;28;20442;-69
2023/10/10 14:02:03;;;;;;;16.38;5.30;;;;;;;;;;5091009;28;20456;-67
2023/10/10 14:04:45;;;;;;;11.63;4.87;;;;;;;;;;5091129;28;20428;-69
2023/10/10 14:07:15;;;;;;;15.45;5.07;;;;;;;;;;5090974;28;20410;-68
2023/10/10 14:09:48;;;;;;;12.40;4.93;;;;;;;;;;5090252;28;20406;-72
2023/10/10 14:12:36;;;;;;;7.30;4.57;;;;;;;;;;5091186;28;20412;-69
2023/10/10 14:15:04;;;;;;;10.80;4.80;;;;;;;;;;5089526;28;20413;-67
2023/10/10 14:17:33;;;;;;;15.00;4.90;;;;;;;;;;5090647;28;20406;-67
2023/10/10 14:20:00;;;;;;;12.55;5.05;;;;;;;;;;5090529;28;20421;-67
2023/10/10 14:22:29;;;;;;;14.40;5.50;;;;;;;;;;5086960;28;20836;-66
2023/10/10 14:24:56;;;;;;;13.53;5.33;;;;;;;;;;5083397;28;20442;-67
2023/10/10 14:27:25;;;;;;;12.68;5.47;;;;;;;;;;5089719;28;20414;-67
2023/10/10 14:29:52;;;;;;;9.13;5.00;;;;;;;;;;5089544;28;20895;-68
2023/10/10 14:32:19;;;;;;;10.17;5.37;;;;;;;;;;5090709;28;20452;-66
2023/10/10 14:35:12;;;;;;;10.07;4.93;;;;;;;;;;5090760;28;20406;-66
2023/10/10 14:37:40;;;;;;;10.30;5.13;;;;;;;;;;5084801;28;20973;-67
2023/10/10 14:40:09;;;;;;;11.20;4.55;;;;;;;;;;5088583;28;20958;-66
2023/10/10 14:42:36;;;;;;;12.18;4.97;;;;;;;;;;5089983;28;20900;-67
2023/10/10 14:45:06;;;;;;;13.73;5.20;;;;;;;;;;5086509;28;20414;-66
2023/10/10 14:47:36;;;;;;;9.90;5.13;;;;;;;;;;5090218;28;20493;-66
2023/10/10 14:50:07;;;;;;;7.90;4.90;;;;;;;;;;5089512;28;20420;-66
2023/10/10 14:52:39;;;;;;;13.02;5.07;;;;;;;;;;5090319;28;20745;-68
2023/10/10 14:55:23;;;;;;;9.90;4.50;;;;;;;;;;5082239;28;20410;-68
2023/10/10 14:57:54;;;;;;;12.10;5.20;;;;;;;;;;5084488;28;20418;-67
2023/10/10 15:00:21;;;;;;;9.70;4.82;;;;;;;;;;5081675;28;20447;-67
2023/10/10 15:02:53;;;;;;;14.50;4.80;;;;;;;;;;5086191;28;20844;-68
2023/10/10 15:05:20;;;;;;;11.10;4.93;;;;;;;;;;5086293;28;20413;-68
2023/10/10 15:07:47;;;;;;;10.45;4.80;;;;;;;;;;5090066;28;20476;-69
2023/10/10 15:10:16;;;;;;;13.93;5.00;;;;;;;;;;5089469;28;20455;-73
2023/10/10 15:12:44;;;;;;;10.30;4.85;;;;;;;;;;5089397;28;20505;-69
2023/10/10 15:15:11;;;;;;;13.63;5.00;;;;;;;;;;5089362;28;21115;-70
2023/10/10 15:17:39;;;;;;;9.65;5.10;;;;;;;;;;5089742;28;20466;-74
2023/10/10 15:20:27;;;;;;;9.73;4.90;;;;;;;;;;5090145;28;20483;-70
2023/10/10 15:22:55;;;;;;;11.02;4.78;;;;;;;;;;5086557;28;20433;-75
2023/10/10 15:25:23;;;;;;;13.80;5.03;;;;;;;;;;5082216;28;20560;-69
2023/10/10 15:27:53;;;;;;;10.52;4.80;;;;;;;;;;5090485;28;20413;-73
2023/10/10 15:30:41;;;;;;;11.27;4.70;;;;;;;;;;5089985;28;20405;-75
2023/10/10 15:33:33;;;;;;;11.57;5.03;;;;;;;;;;5087558;28;20425;-73
2023/10/10 15:36:06;;;;;;;11.52;4.95;;;;;;;;;;5087996;28;20981;-63
2023/10/10 15:38:34;;;;;;;12.32;5.13;;;;;;;;;;5085873;28;20481;-63
2023/10/10 15:41:15;;;;;;;12.53;4.83;;;;;;;;;;5089189;28;20417;-63
2023/10/10 15:43:46;;;;;;;10.50;4.57;;;;;;;;;;5089488;28;20513;-63
2023/10/10 15:46:14;;;;;;;10.68;4.93;;;;;;;;;;5089002;28;20410;-63
2023/10/10 15:48:45;;;;;;;12.75;4.85;;;;;;;;;;5089694;28;20834;-63
2023/10/10 15:51:14;;;;;;;11.85;5.07;;;;;;;;;;5089589;28;20878;-64
2023/10/10 15:53:42;;;;;;;12.45;5.28;;;;;;;;;;5090235;28;20409;-67
2023/10/10 15:56:15;;;;;;;8.27;4.22;;;;;;;;;;5101726;28;20437;-71
2023/10/10 15:58:49;;;;;;;12.38;4.80;;;;;;;;;;5091133;28;20405;-67
2023/10/10 16:01:21;;;;;;;10.05;4.90;;;;;;;;;;5089127;28;20428;-68
2023/10/10 16:03:49;;;;;;;15.63;4.88;;;;;;;;;;5089233;28;20888;-67
2023/10/10 16:06:18;;;;;;;9.05;4.50;;;;;;;;;;5089068;28;20870;-68
2023/10/10 16:08:46;;;;;;;11.93;4.75;;;;;;;;;;5089281;28;20449;-67
2023/10/10 16:11:15;;;;;;;13.20;5.00;;;;;;;;;;5084912;28;20410;-67
2023/10/10 16:13:42;;;;;;;10.40;4.70;;;;;;;;;;5088683;28;20422;-68
2023/10/10 16:16:09;;;;;;;10.50;4.90;;;;;;;;;;5088758;28;20410;-67
2023/10/10 16:18:36;;;;;;;10.10;4.80;;;;;;;;;;5082392;28;20401;-68
2023/10/10 16:21:07;;;;;;;12.77;5.10;;;;;;;;;;5088865;28;20620;-68
2023/10/10 16:23:37;;;;;;;14.68;5.20;;;;;;;;;;5081514;28;20424;-68
2023/10/10 16:26:05;;;;;;;9.90;4.70;;;;;;;;;;5084794;28;20868;-66
2023/10/10 16:28:35;;;;;;;15.27;4.80;;;;;;;;;;5089192;28;20948;-68
2023/10/10 16:31:06;;;;;;;11.52;5.35;;;;;;;;;;5089223;28;20414;-68
2023/10/10 16:33:37;;;;;;;9.40;5.20;;;;;;;;;;5089526;28;20437;-69
2023/10/10 16:36:04;;;;;;;9.80;4.93;;;;;;;;;;5089130;28;20410;-69
2023/10/10 16:38:35;;;;;;;11.43;5.20;;;;;;;;;;5089178;28;20410;-68
2023/10/10 16:41:02;;;;;;;13.57;5.77;;;;;;;;;;5088712;28;20478;-67
2023/10/10 16:43:29;;;;;;;10.90;4.93;;;;;;;;;;5085124;28;20439;-68
2023/10/10 16:46:00;;;;;;;11.02;5.10;;;;;;;;;;5088505;28;20406;-67
2023/10/10 16:48:31;;;;;;;10.13;5.10;;;;;;;;;;5091981;28;20406;-66